Time;durP1;ratioP1;P1;durP2;ratioP2;P2;SDS_P1;SDS_P2;PMS_P1;PMS_P2;Temp;Humidity;BMP_temperature;BMP_pressure;BME280_temperature;BME280_humidity;BME280_pressure;Samples;Min_cycle;Max_cycle;Signal;HPM_P1;HPM_P2
2024/01/03 00:02:01;;;;;;;11.60;3.15;;;;;;;-19.34;100.00;99076.66;5040632;28;20154;-68
2024/01/03 00:04:28;;;;;;;5.20;2.38;;;;;;;-19.27;100.00;99087.63;5054169;28;20559;-68
2024/01/03 00:06:54;;;;;;;3.67;2.63;;;;;;;-19.32;100.00;99082.53;5037642;28;20476;-68
2024/01/03 00:09:21;;;;;;;6.78;3.30;;;;;;;-19.34;100.00;99093.50;5053850;28;20121;-69
2024/01/03 00:11:47;;;;;;;2.53;2.33;;;;;;;-19.34;100.00;99093.50;5067607;28;20055;-68
2024/01/03 00:14:23;;;;;;;7.90;2.63;;;;;;;-19.26;100.00;99094.34;5074147;28;20518;-68
2024/01/03 00:16:50;;;;;;;7.75;2.22;;;;;;;-19.33;100.00;99090.97;5091375;28;20062;-68
2024/01/03 00:19:21;;;;;;;5.07;2.50;;;;;;;-19.26;100.00;99087.59;5073976;28;20055;-68
2024/01/03 00:21:50;;;;;;;4.28;2.50;;;;;;;-19.36;100.00;99093.47;5073488;28;20048;-69
2024/01/03 00:24:19;;;;;;;2.40;2.20;;;;;;;-19.30;100.00;99085.06;5071888;28;20090;-67
2024/01/03 00:26:46;;;;;;;6.10;2.70;;;;;;;-19.30;100.00;99090.97;5088225;28;20052;-66
2024/01/03 00:29:43;;;;;;;2.90;2.45;;;;;;;-19.09;100.00;99086.00;5070844;28;20514;-66
2024/01/03 00:32:12;;;;;;;7.38;2.70;;;;;;;-19.14;100.00;99086.81;5055010;28;20056;-66
2024/01/03 00:34:40;;;;;;;2.38;2.17;;;;;;;-19.15;100.00;99075.84;5071423;28;20055;-66
2024/01/03 00:37:29;;;;;;;3.75;3.00;;;;;;;-18.98;100.00;99093.63;5022171;28;20036;-67
2024/01/03 00:40:04;;;;;;;9.45;3.00;;;;;;;-19.03;100.00;99075.91;5032315;28;20076;-66
2024/01/03 00:42:30;;;;;;;5.07;2.53;;;;;;;-18.99;100.00;99077.63;5056741;28;20056;-66
2024/01/03 00:44:57;;;;;;;4.63;2.90;;;;;;;-19.09;100.00;99080.94;5053918;28;20817;-66
2024/01/03 00:47:25;;;;;;;11.38;3.33;;;;;;;-19.09;100.00;99080.13;5094913;28;20043;-66
2024/01/03 00:49:53;;;;;;;7.55;3.13;;;;;;;-19.11;100.00;99072.53;5078311;28;20143;-66
2024/01/03 00:52:20;;;;;;;2.73;1.90;;;;;;;-19.12;100.00;99072.50;5077991;28;20166;-66
2024/01/03 00:54:45;;;;;;;3.38;2.42;;;;;;;-19.14;100.00;99069.13;5094766;28;20046;-66
2024/01/03 00:57:11;;;;;;;5.60;2.40;;;;;;;-19.10;100.00;99070.81;5111504;28;20040;-67
2024/01/03 00:59:38;;;;;;;3.63;2.60;;;;;;;-19.13;100.00;99070.78;5094638;28;20104;-67
2024/01/03 01:02:04;;;;;;;3.90;2.77;;;;;;;-19.17;100.00;99069.94;5111691;28;20051;-67
2024/01/03 01:04:31;;;;;;;3.70;2.42;;;;;;;-19.16;100.00;99079.22;5077304;28;20567;-66
2024/01/03 01:06:57;;;;;;;4.38;3.08;;;;;;;-19.23;100.00;99054.72;5077442;28;20134;-66
2024/01/03 01:09:23;;;;;;;3.40;2.70;;;;;;;-19.24;100.00;99058.09;5094408;28;20143;-67
2024/01/03 01:11:50;;;;;;;8.95;2.80;;;;;;;-19.30;100.00;99068.22;5094593;28;20043;-66
2024/01/03 01:14:16;;;;;;;3.27;2.70;;;;;;;-19.27;100.00;99063.19;5128224;27;20404;-67
2024/01/03 01:16:42;;;;;;;4.80;2.67;;;;;;;-19.25;100.00;99071.59;5094438;28;20072;-67
2024/01/03 01:19:07;;;;;;;9.00;2.60;;;;;;;-19.23;100.00;99057.25;5079052;28;20054;-67
2024/01/03 01:21:33;;;;;;;3.20;2.67;;;;;;;-19.23;100.00;99057.25;5095518;28;20046;-66
2024/01/03 01:23:59;;;;;;;4.07;2.80;;;;;;;-19.21;100.00;99064.84;5111777;28;20043;-66
2024/01/03 01:26:24;;;;;;;5.57;3.23;;;;;;;-19.22;100.00;99073.28;5111394;28;20487;-66
2024/01/03 01:28:50;;;;;;;11.67;2.77;;;;;;;-19.17;100.00;99066.56;5094333;28;20043;-66
2024/01/03 01:31:16;;;;;;;5.13;3.17;;;;;;;-19.22;100.00;99070.75;5094205;28;20068;-67
2024/01/03 01:33:41;;;;;;;2.60;2.40;;;;;;;-19.23;100.00;99076.66;5093981;28;20135;-67
2024/01/03 01:36:08;;;;;;;3.80;2.70;;;;;;;-19.21;100.00;99085.94;5094211;28;20079;-66
2024/01/03 01:38:33;;;;;;;4.22;2.63;;;;;;;-19.16;100.00;99083.44;5094024;28;20043;-67
2024/01/03 01:40:59;;;;;;;5.93;2.40;;;;;;;-19.22;100.00;99088.47;5093744;28;20062;-67
2024/01/03 01:43:24;;;;;;;5.57;3.07;;;;;;;-19.21;100.00;99083.41;5112516;28;20047;-67
2024/01/03 01:45:51;;;;;;;3.60;2.47;;;;;;;-19.16;100.00;99088.50;5081334;28;20482;-66
2024/01/03 01:48:17;;;;;;;6.55;3.22;;;;;;;-19.17;100.00;99084.28;5098552;28;20046;-66
2024/01/03 01:50:44;;;;;;;4.90;2.10;;;;;;;-19.14;100.00;99095.22;5135649;27;20043;-66
2024/01/03 01:53:10;;;;;;;7.28;2.90;;;;;;;-19.17;100.00;99096.94;5102710;28;20043;-66
2024/01/03 01:55:37;;;;;;;2.93;2.20;;;;;;;-19.12;100.00;99102.88;5120569;28;20061;-66
2024/01/03 01:58:03;;;;;;;4.25;2.97;;;;;;;-19.03;100.00;99090.25;5115883;28;20043;-66
2024/01/03 02:00:29;;;;;;;7.78;2.80;;;;;;;-19.00;100.00;99087.75;5131907;27;20130;-66
2024/01/03 02:02:56;;;;;;;2.87;2.30;;;;;;;-19.04;100.00;99079.28;5097562;28;20491;-66
2024/01/03 02:05:22;;;;;;;7.15;2.95;;;;;;;-19.04;100.00;99079.28;5080811;28;20136;-66
2024/01/03 02:07:48;;;;;;;3.73;2.73;;;;;;;-19.04;100.00;99076.75;5080857;28;20063;-67
2024/01/03 02:10:14;;;;;;;4.23;2.50;;;;;;;-19.03;100.00;99090.25;5114803;28;20073;-67
2024/01/03 02:12:39;;;;;;;5.60;2.43;;;;;;;-19.05;100.00;99102.91;5097795;28;20043;-67
2024/01/03 02:15:05;;;;;;;4.60;2.37;;;;;;;-19.04;100.00;99089.41;5097521;28;20443;-67
2024/01/03 02:17:37;;;;;;;3.17;2.45;;;;;;;-19.00;100.00;99092.78;5114651;28;20048;-67
2024/01/03 02:20:04;;;;;;;3.25;2.10;;;;;;;-19.08;100.00;99087.72;5081006;28;20138;-68
2024/01/03 02:22:31;;;;;;;6.90;2.80;;;;;;;-19.11;100.00;99085.16;5081068;28;20069;-68
2024/01/03 02:24:57;;;;;;;11.18;3.00;;;;;;;-19.11;100.00;99082.63;5080421;28;20139;-67
2024/01/03 02:27:22;;;;;;;8.00;2.90;;;;;;;-19.11;100.00;99085.16;5097250;28;20077;-66
2024/01/03 02:29:48;;;;;;;2.80;2.23;;;;;;;-19.09;100.00;99088.53;5080230;28;20050;-66
2024/01/03 02:32:14;;;;;;;7.33;2.70;;;;;;;-19.10;100.00;99088.53;5097253;28;20105;-66
2024/01/03 02:34:39;;;;;;;9.33;2.80;;;;;;;-19.11;100.00;99090.22;5080799;28;20131;-66
2024/01/03 02:37:08;;;;;;;6.20;3.00;;;;;;;-19.01;100.00;99094.47;5097279;28;20060;-67
2024/01/03 02:39:34;;;;;;;4.10;2.20;;;;;;;-19.08;100.00;99089.38;5097686;28;20040;-67
2024/01/03 02:42:00;;;;;;;7.83;3.00;;;;;;;-19.08;100.00;99084.31;5098149;28;20126;-66
2024/01/03 02:44:27;;;;;;;3.83;2.57;;;;;;;-19.16;100.00;99086.81;5097614;28;20108;-66
2024/01/03 02:46:54;;;;;;;3.78;2.15;;;;;;;-19.14;100.00;99092.72;5097251;28;20051;-66
2024/01/03 02:49:20;;;;;;;9.05;2.30;;;;;;;-19.14;100.00;99086.81;5113792;28;20502;-67
2024/01/03 02:51:46;;;;;;;7.43;2.93;;;;;;;-19.17;100.00;99092.69;5079915;28;20039;-67
2024/01/03 02:54:12;;;;;;;3.67;2.80;;;;;;;-19.19;100.00;99088.47;5079551;28;20108;-66
2024/01/03 02:56:41;;;;;;;5.53;2.60;;;;;;;-19.06;100.00;99096.13;5079455;28;20075;-67
2024/01/03 02:59:06;;;;;;;2.60;2.38;;;;;;;-19.16;100.00;99086.81;5130733;27;20364;-67
2024/01/03 03:01:33;;;;;;;5.70;3.00;;;;;;;-19.10;100.00;99089.38;5062838;28;20058;-66
2024/01/03 03:03:59;;;;;;;3.42;2.08;;;;;;;-19.13;100.00;99101.16;5114449;28;20473;-66
2024/01/03 03:06:24;;;;;;;14.97;2.70;;;;;;;-19.14;100.00;99094.41;5116674;28;20051;-65
2024/01/03 03:08:50;;;;;;;3.50;2.50;;;;;;;-19.13;100.00;99089.34;5117379;28;20153;-66
2024/01/03 03:11:15;;;;;;;7.23;4.57;;;;;;;-19.10;100.00;99094.44;5100724;28;20100;-66
2024/01/03 03:13:41;;;;;;;8.00;4.23;;;;;;;-19.05;100.00;99084.34;5132311;27;20039;-66
2024/01/03 03:16:09;;;;;;;4.43;3.07;;;;;;;-19.04;100.00;99099.50;5096692;28;20040;-65
2024/01/03 03:18:35;;;;;;;8.75;4.45;;;;;;;-19.04;100.00;99093.59;5130657;27;20119;-65
2024/01/03 03:21:01;;;;;;;20.00;5.77;;;;;;;-19.08;100.00;99091.91;5113553;28;20071;-66
2024/01/03 03:23:27;;;;;;;23.07;7.90;;;;;;;-19.05;100.00;99094.44;5113823;28;20051;-66
2024/01/03 03:25:53;;;;;;;16.33;7.87;;;;;;;-19.05;100.00;99091.91;5114700;28;20062;-65
2024/01/03 03:28:20;;;;;;;23.48;8.65;;;;;;;-19.02;100.00;99095.31;5114228;28;20070;-65
2024/01/03 03:30:46;;;;;;;15.68;7.43;;;;;;;-19.01;100.00;99099.53;5097809;28;20108;-66
2024/01/03 03:33:11;;;;;;;27.20;10.93;;;;;;;-19.02;100.00;99109.66;5114416;28;20551;-66
2024/01/03 03:35:37;;;;;;;26.97;12.93;;;;;;;-19.05;100.00;99109.63;5082076;28;20036;-66
2024/01/03 03:38:03;;;;;;;22.17;9.73;;;;;;;-19.06;100.00;99100.34;5118013;28;20482;-65
2024/01/03 03:40:28;;;;;;;25.80;10.27;;;;;;;-19.15;100.00;99106.19;5100048;28;20478;-66
2024/01/03 03:42:54;;;;;;;19.25;9.40;;;;;;;-19.17;100.00;99107.88;5099914;28;20093;-66
2024/01/03 03:45:20;;;;;;;14.47;7.40;;;;;;;-19.25;100.00;99106.16;5100716;28;20039;-66
2024/01/03 03:47:47;;;;;;;10.60;6.57;;;;;;;-19.27;100.00;99111.22;5101635;28;20043;-66
2024/01/03 03:50:13;;;;;;;14.35;6.35;;;;;;;-19.38;100.00;99107.78;5116641;28;20470;-66
2024/01/03 03:52:40;;;;;;;14.88;6.55;;;;;;;-19.38;100.00;99107.78;5097350;28;20039;-66
2024/01/03 03:55:07;;;;;;;14.93;6.13;;;;;;;-19.39;100.00;99101.03;5099787;28;20078;-66
2024/01/03 03:57:32;;;;;;;13.85;7.03;;;;;;;-19.39;100.00;99116.22;5099258;28;20048;-65
2024/01/03 03:59:58;;;;;;;8.27;4.93;;;;;;;-19.35;100.00;99119.63;5115901;28;20497;-65
2024/01/03 04:02:25;;;;;;;12.87;5.53;;;;;;;-19.36;100.00;99116.22;5115290;28;20079;-66
2024/01/03 04:04:51;;;;;;;13.07;5.35;;;;;;;-19.35;100.00;99117.91;5115854;28;20044;-67
2024/01/03 04:07:17;;;;;;;18.20;6.03;;;;;;;-19.39;100.00;99111.16;5114035;28;20051;-66
2024/01/03 04:09:44;;;;;;;8.73;4.55;;;;;;;-19.39;100.00;99108.63;5113177;28;20051;-67
2024/01/03 04:12:10;;;;;;;14.57;6.15;;;;;;;-19.35;100.00;99102.75;5095361;28;20050;-66
2024/01/03 04:14:39;;;;;;;11.27;5.75;;;;;;;-19.28;100.00;99114.59;5113353;28;20131;-67
2024/01/03 04:17:04;;;;;;;11.00;5.57;;;;;;;-19.38;100.00;99117.03;5061697;28;20490;-67
2024/01/03 04:19:30;;;;;;;16.50;5.43;;;;;;;-19.36;100.00;99121.28;5078297;28;20104;-67
2024/01/03 04:21:59;;;;;;;9.73;5.23;;;;;;;-19.27;100.00;99130.59;5112333;28;20051;-67
2024/01/03 04:24:25;;;;;;;10.45;5.15;;;;;;;-19.39;100.00;99121.28;5078136;28;20481;-67
2024/01/03 04:26:54;;;;;;;12.93;4.97;;;;;;;-19.25;100.00;99128.91;5095076;28;20051;-67
2024/01/03 04:29:19;;;;;;;18.20;5.70;;;;;;;-19.35;100.00;99127.22;5112271;28;20073;-67
2024/01/03 04:31:45;;;;;;;9.40;5.47;;;;;;;-19.37;100.00;99129.72;5112544;28;20094;-67
2024/01/03 04:34:11;;;;;;;12.90;5.10;;;;;;;-19.39;100.00;99128.00;5095041;28;20051;-67
2024/01/03 04:36:37;;;;;;;10.70;4.77;;;;;;;-19.32;100.00;99135.63;5078211;28;20056;-67
2024/01/03 04:39:02;;;;;;;9.00;4.70;;;;;;;-19.25;100.00;99133.97;5113171;28;20047;-67
2024/01/03 04:41:28;;;;;;;7.57;3.67;;;;;;;-19.25;100.00;99128.91;5094827;28;20039;-66
2024/01/03 04:43:55;;;;;;;7.43;3.80;;;;;;;-19.21;100.00;99135.66;5107612;27;20047;-67
2024/01/03 04:46:21;;;;;;;4.93;3.40;;;;;;;-19.21;100.00;99131.47;5115444;27;20058;-67
2024/01/03 04:48:47;;;;;;;4.07;3.17;;;;;;;-19.22;100.00;99139.91;5132822;27;20051;-67
2024/01/03 04:51:12;;;;;;;9.00;3.20;;;;;;;-19.20;100.00;99138.19;5098395;27;20405;-67
2024/01/03 04:53:38;;;;;;;12.90;3.70;;;;;;;-19.19;100.00;99142.44;5132976;27;20470;-70
2024/01/03 04:56:04;;;;;;;4.47;2.90;;;;;;;-19.21;100.00;99136.53;5132253;27;21665;-67
2024/01/03 04:58:31;;;;;;;5.88;2.88;;;;;;;-19.24;100.00;99140.69;5098355;27;20550;-67
2024/01/03 05:00:56;;;;;;;4.18;2.97;;;;;;;-19.24;100.00;99141.56;5132224;27;20061;-66
2024/01/03 05:03:22;;;;;;;6.43;3.03;;;;;;;-19.28;100.00;99139.03;5097849;27;20137;-66
2024/01/03 05:05:48;;;;;;;5.57;2.97;;;;;;;-19.35;99.64;99143.19;5098366;27;20409;-66
2024/01/03 05:08:15;;;;;;;5.63;2.87;;;;;;;-19.44;98.75;99138.09;5115050;27;20035;-66
2024/01/03 05:10:41;;;;;;;6.53;2.63;;;;;;;-19.42;99.29;99138.94;5098142;27;20047;-66
2024/01/03 05:13:07;;;;;;;3.53;2.53;;;;;;;-19.46;99.07;99149.03;5114658;27;20061;-66
2024/01/03 05:15:32;;;;;;;5.73;2.90;;;;;;;-19.47;99.21;99148.19;5114476;28;20470;-65
2024/01/03 05:17:58;;;;;;;3.70;2.40;;;;;;;-19.51;98.98;99143.94;5113428;27;20525;-66
2024/01/03 05:20:24;;;;;;;3.13;2.63;;;;;;;-19.61;98.36;99154.81;5097504;28;20038;-66
2024/01/03 05:22:50;;;;;;;4.45;2.47;;;;;;;-19.69;98.51;99148.00;5097829;28;20057;-66
2024/01/03 05:25:16;;;;;;;4.50;2.65;;;;;;;-19.75;98.71;99148.78;5114663;28;20142;-66
2024/01/03 05:27:42;;;;;;;15.27;3.27;;;;;;;-19.77;99.29;99127.75;5097236;28;20954;-66
2024/01/03 05:30:08;;;;;;;3.23;2.73;;;;;;;-19.75;99.56;99137.88;5114221;28;20043;-66
2024/01/03 05:32:34;;;;;;;5.97;3.00;;;;;;;-19.82;99.40;99139.47;5081249;28;20082;-66
2024/01/03 05:35:00;;;;;;;4.00;2.73;;;;;;;-19.83;99.68;99147.91;5101060;28;20050;-67
2024/01/03 05:37:25;;;;;;;7.80;2.87;;;;;;;-19.84;99.82;99133.56;5080155;28;20071;-67
2024/01/03 05:39:51;;;;;;;3.47;2.93;;;;;;;-19.81;99.93;99136.13;5079283;28;20052;-66
2024/01/03 05:42:17;;;;;;;6.37;2.53;;;;;;;-19.83;99.94;99132.75;5094102;28;20043;-66
2024/01/03 05:44:42;;;;;;;3.40;2.57;;;;;;;-19.82;99.99;99131.91;5076325;28;20039;-67
2024/01/03 05:47:08;;;;;;;5.93;3.77;;;;;;;-19.80;99.51;99127.72;5072134;28;20056;-64
2024/01/03 05:49:34;;;;;;;5.00;2.95;;;;;;;-19.78;99.52;99140.38;5072479;28;20059;-64
2024/01/03 05:52:00;;;;;;;7.23;2.87;;;;;;;-19.76;99.40;99142.06;5055931;28;20040;-65
2024/01/03 05:54:27;;;;;;;4.03;2.70;;;;;;;-19.71;99.31;99142.09;5055539;28;20051;-65
2024/01/03 05:56:53;;;;;;;6.15;2.60;;;;;;;-19.69;99.16;99141.25;5056020;28;20582;-64
2024/01/03 05:59:20;;;;;;;4.07;2.50;;;;;;;-19.61;99.64;99139.66;5022538;28;20044;-64
2024/01/03 06:01:46;;;;;;;2.60;2.25;;;;;;;-19.60;99.07;99141.34;5055522;28;20538;-65
2024/01/03 06:04:14;;;;;;;7.28;3.20;;;;;;;-19.51;99.57;99138.91;5056450;28;20547;-65
2024/01/03 06:06:41;;;;;;;2.63;2.42;;;;;;;-19.56;99.05;99132.94;5055246;28;20040;-65
2024/01/03 06:09:07;;;;;;;6.65;3.05;;;;;;;-19.53;98.82;99132.13;5072469;28;20052;-65
2024/01/03 06:11:33;;;;;;;3.22;2.85;;;;;;;-19.56;98.29;99135.47;5093667;28;20493;-65
2024/01/03 06:13:58;;;;;;;5.67;3.20;;;;;;;-19.53;98.27;99135.50;5094456;28;20092;-65
2024/01/03 06:16:24;;;;;;;4.60;2.97;;;;;;;-19.51;97.62;99131.31;5093882;28;20217;-65
2024/01/03 06:18:50;;;;;;;3.60;2.87;;;;;;;-19.53;97.08;99143.09;5059748;28;20044;-64
2024/01/03 06:21:15;;;;;;;3.07;2.50;;;;;;;-19.45;96.89;99143.13;5076442;28;20827;-65
2024/01/03 06:23:41;;;;;;;4.70;3.33;;;;;;;-19.41;97.27;99140.63;5076502;28;20075;-65
2024/01/03 06:26:08;;;;;;;15.53;2.70;;;;;;;-19.28;96.79;99149.16;5076384;28;20051;-65
2024/01/03 06:28:35;;;;;;;5.43;2.50;;;;;;;-19.29;96.38;99145.75;5076128;28;20051;-65
2024/01/03 06:31:04;;;;;;;3.33;2.67;;;;;;;-19.20;96.34;99145.78;5096705;28;20048;-65
2024/01/03 06:33:29;;;;;;;6.05;3.20;;;;;;;-19.26;95.41;99150.00;5096776;28;20073;-65
2024/01/03 06:35:57;;;;;;;5.53;2.70;;;;;;;-19.19;94.84;99151.69;5097604;28;20051;-65
2024/01/03 06:38:23;;;;;;;5.55;2.90;;;;;;;-19.16;95.18;99164.38;5063833;28;20039;-65
2024/01/03 06:40:50;;;;;;;2.57;2.30;;;;;;;-18.98;95.01;99164.47;5079576;28;20395;-65
2024/01/03 06:43:15;;;;;;;5.38;2.95;;;;;;;-18.99;94.18;99162.78;5079669;28;20043;-65
2024/01/03 06:45:41;;;;;;;6.37;2.73;;;;;;;-19.02;94.33;99166.16;5096830;28;20052;-64
2024/01/03 06:48:07;;;;;;;7.93;3.50;;;;;;;-19.03;93.00;99166.16;5096320;28;20051;-65
2024/01/03 06:50:33;;;;;;;7.37;3.63;;;;;;;-19.03;92.99;99163.63;5063369;28;20483;-67
2024/01/03 06:52:59;;;;;;;5.90;3.03;;;;;;;-19.02;92.96;99165.28;5079671;28;20332;-64
2024/01/03 06:55:26;;;;;;;4.85;2.50;;;;;;;-18.89;92.57;99167.91;5046356;28;20089;-64
2024/01/03 06:57:53;;;;;;;4.13;2.35;;;;;;;-18.95;91.91;99162.81;5113171;28;20048;-65
2024/01/03 07:00:19;;;;;;;10.75;2.90;;;;;;;-18.91;92.19;99163.69;5113298;28;20134;-65
2024/01/03 07:02:45;;;;;;;6.78;2.92;;;;;;;-18.84;92.65;99155.28;5062454;28;20043;-65
2024/01/03 07:05:11;;;;;;;6.55;2.83;;;;;;;-18.72;92.95;99161.25;5096091;28;20043;-65
2024/01/03 07:07:36;;;;;;;5.80;2.83;;;;;;;-18.70;91.92;99151.13;5096194;28;20032;-65
2024/01/03 07:10:03;;;;;;;5.00;3.20;;;;;;;-18.55;92.16;99149.50;5079120;28;20059;-65
2024/01/03 07:12:29;;;;;;;4.60;3.13;;;;;;;-18.29;92.52;99145.31;5062482;28;20047;-65
2024/01/03 07:14:56;;;;;;;4.40;2.90;;;;;;;-18.00;91.87;99146.22;5062891;28;20393;-65
2024/01/03 07:17:22;;;;;;;7.45;3.40;;;;;;;-17.89;90.76;99145.41;5096709;28;20108;-65
2024/01/03 07:19:47;;;;;;;4.47;2.93;;;;;;;-17.74;89.07;99147.97;5079803;28;20039;-65
2024/01/03 07:22:13;;;;;;;8.23;3.57;;;;;;;-17.65;87.57;99148.81;5079232;28;20039;-65
2024/01/03 07:24:40;;;;;;;5.90;2.77;;;;;;;-17.41;86.84;99146.22;5112743;27;20040;-64
2024/01/03 07:27:07;;;;;;;4.38;3.28;;;;;;;-17.23;84.90;99155.53;5112973;28;20072;-65
2024/01/03 07:29:32;;;;;;;4.33;2.90;;;;;;;-17.13;83.44;99157.19;5096850;28;20043;-71
2024/01/03 07:31:59;;;;;;;6.93;3.15;;;;;;;-16.95;82.78;99162.22;5080098;28;20043;-66
2024/01/03 07:34:26;;;;;;;3.67;3.17;;;;;;;-16.78;81.10;99155.41;5079171;28;20453;-71
2024/01/03 07:36:51;;;;;;;8.20;3.50;;;;;;;-16.64;79.27;99159.63;5090846;27;20036;-69
2024/01/03 07:39:17;;;;;;;4.70;2.60;;;;;;;-16.52;78.21;99156.19;5115504;27;20121;-68
2024/01/03 07:41:43;;;;;;;4.77;2.80;;;;;;;-16.42;76.43;99147.66;5097672;27;20031;-70
2024/01/03 07:44:10;;;;;;;6.15;3.33;;;;;;;-16.30;75.79;99145.03;5107582;27;20039;-69
2024/01/03 07:46:36;;;;;;;4.87;3.00;;;;;;;-16.11;75.87;99144.09;5115042;27;20386;-68
2024/01/03 07:49:01;;;;;;;3.73;3.33;;;;;;;-15.90;74.06;99150.75;5113147;28;20463;-67
2024/01/03 07:51:27;;;;;;;8.17;3.17;;;;;;;-15.84;72.75;99154.09;5115800;27;20039;-68
2024/01/03 07:53:53;;;;;;;11.27;3.40;;;;;;;-15.77;71.50;99150.66;5132524;27;20158;-69
2024/01/03 07:56:19;;;;;;;9.90;3.30;;;;;;;-15.74;70.18;99154.91;5095597;27;20039;-67
2024/01/03 07:58:44;;;;;;;7.57;3.13;;;;;;;-15.73;70.29;99156.56;5132373;27;20035;-67
2024/01/03 08:01:10;;;;;;;7.03;3.80;;;;;;;-15.67;69.99;99159.06;5133206;27;20171;-67
2024/01/03 08:03:36;;;;;;;9.10;3.35;;;;;;;-15.69;68.59;99155.69;5115485;27;20043;-67
2024/01/03 08:06:02;;;;;;;11.33;3.57;;;;;;;-15.73;68.25;99151.50;5112979;27;20058;-71
2024/01/03 08:08:28;;;;;;;5.47;3.80;;;;;;;-15.78;67.69;99146.44;5098400;27;20035;-65
2024/01/03 08:10:53;;;;;;;12.10;3.90;;;;;;;-15.77;68.43;99152.38;5115483;27;20504;-66
2024/01/03 08:13:20;;;;;;;7.57;3.47;;;;;;;-15.61;68.17;99152.25;5098453;27;20058;-67
2024/01/03 08:15:46;;;;;;;5.53;3.25;;;;;;;-15.51;68.72;99150.50;5098470;27;20043;-65
2024/01/03 08:18:12;;;;;;;6.27;2.63;;;;;;;-15.35;68.94;99147.75;5132019;27;20091;-65
2024/01/03 08:20:37;;;;;;;11.20;3.73;;;;;;;-15.08;68.45;99151.78;5133164;27;20043;-65
2024/01/03 08:23:03;;;;;;;3.77;2.93;;;;;;;-15.01;67.65;99149.16;5098387;27;20138;-65
2024/01/03 08:25:29;;;;;;;7.77;3.10;;;;;;;-14.98;66.25;99153.34;5132723;27;20050;-65
2024/01/03 08:27:55;;;;;;;4.00;2.60;;;;;;;-14.95;65.94;99150.78;5132725;27;20304;-68
2024/01/03 08:30:21;;;;;;;7.47;3.73;;;;;;;-15.01;65.28;99153.41;5133779;27;20054;-67
2024/01/03 08:32:47;;;;;;;5.50;4.00;;;;;;;-15.10;64.66;99151.78;5133733;27;20276;-67
2024/01/03 08:35:13;;;;;;;6.57;2.97;;;;;;;-15.12;64.67;99142.47;5115512;27;20054;-66
2024/01/03 08:37:39;;;;;;;9.60;3.77;;;;;;;-15.09;64.75;99143.28;5114954;27;20285;-68
2024/01/03 08:40:06;;;;;;;8.50;3.20;;;;;;;-14.92;64.89;99133.78;5114822;27;20478;-67
2024/01/03 08:42:32;;;;;;;5.10;3.00;;;;;;;-14.91;65.13;99139.72;5133689;27;20146;-66
2024/01/03 08:44:58;;;;;;;7.27;3.20;;;;;;;-14.74;65.69;99146.31;5132905;27;20768;-68
2024/01/03 08:47:23;;;;;;;8.37;3.37;;;;;;;-14.71;65.48;99138.63;5131971;27;20043;-68
2024/01/03 08:49:49;;;;;;;6.80;3.40;;;;;;;-14.54;65.56;99139.28;5114643;27;20728;-67
2024/01/03 08:52:15;;;;;;;11.97;4.03;;;;;;;-14.52;64.82;99147.78;5097096;28;20079;-68
2024/01/03 08:54:41;;;;;;;6.90;3.37;;;;;;;-14.42;64.83;99144.25;5096084;27;20039;-67
2024/01/03 08:57:09;;;;;;;5.77;3.43;;;;;;;-14.25;64.11;99138.09;5116571;27;20050;-67
2024/01/03 08:59:36;;;;;;;3.70;3.40;;;;;;;-14.01;64.32;99135.19;5081848;27;20043;-68
2024/01/03 09:02:03;;;;;;;6.97;3.17;;;;;;;-13.76;64.09;99129.75;5092539;27;20300;-69
2024/01/03 09:04:29;;;;;;;6.50;3.00;;;;;;;-13.73;63.10;99133.94;5131665;27;20281;-69
2024/01/03 09:06:57;;;;;;;4.23;3.07;;;;;;;-13.77;62.57;99128.03;5131497;27;20304;-69
2024/01/03 09:09:23;;;;;;;5.00;3.13;;;;;;;-13.82;62.01;99123.88;5114506;28;20458;-69
2024/01/03 09:11:49;;;;;;;6.13;2.47;;;;;;;-13.82;61.67;99114.47;5114092;27;20063;-68
2024/01/03 09:14:16;;;;;;;5.07;3.27;;;;;;;-13.82;61.23;99118.75;5131437;27;20062;-72
2024/01/03 09:16:41;;;;;;;3.90;2.67;;;;;;;-13.78;61.45;99113.59;5129619;27;20284;-71
2024/01/03 09:19:07;;;;;;;3.70;2.83;;;;;;;-13.71;61.39;99114.34;5108226;28;20284;-71
2024/01/03 09:21:33;;;;;;;7.87;2.97;;;;;;;-13.55;60.81;99123.44;5098268;27;20509;-70
2024/01/03 09:24:00;;;;;;;8.97;3.47;;;;;;;-13.26;60.67;99118.72;5115123;28;20277;-71
2024/01/03 09:26:26;;;;;;;4.57;2.57;;;;;;;-13.07;60.00;99113.28;5132380;27;20069;-71
2024/01/03 09:28:52;;;;;;;4.43;2.90;;;;;;;-12.77;59.93;99115.22;5133407;27;20763;-79
2024/01/03 09:31:18;;;;;;;6.63;2.90;;;;;;;-12.51;58.69;99120.69;5132787;28;20046;-76
2024/01/03 09:33:43;;;;;;;10.40;4.23;;;;;;;-12.55;57.84;99111.41;5131323;28;20330;-75
2024/01/03 09:36:17;;;;;;;7.17;4.27;;;;;;;-12.41;57.30;99113.69;5097751;28;20670;-74
2024/01/03 09:38:43;;;;;;;7.30;3.33;;;;;;;-12.46;56.54;99111.22;5115332;28;20043;-75
2024/01/03 09:41:12;;;;;;;4.07;3.03;;;;;;;-12.32;59.82;99112.63;5132905;28;20398;-75
2024/01/03 09:43:41;;;;;;;7.77;4.10;;;;;;;-12.10;66.28;99099.38;5133368;27;20089;-72
2024/01/03 09:46:09;;;;;;;9.47;3.90;;;;;;;-12.27;60.74;99101.44;5131357;27;20408;-72
2024/01/03 09:48:35;;;;;;;7.27;3.57;;;;;;;-12.38;58.23;99103.38;5131802;27;20349;-72
2024/01/03 09:51:01;;;;;;;6.20;3.70;;;;;;;-12.45;57.62;99112.88;5096165;28;20280;-71
2024/01/03 09:53:28;;;;;;;10.40;3.73;;;;;;;-12.47;57.01;99101.00;5098458;28;20104;-72
2024/01/03 09:55:54;;;;;;;7.70;3.60;;;;;;;-12.30;56.77;99101.50;5114790;28;20285;-71
2024/01/03 09:58:20;;;;;;;9.97;4.00;;;;;;;-12.11;56.22;99107.91;5115716;28;20281;-72
2024/01/03 10:00:46;;;;;;;11.43;4.37;;;;;;;-11.90;55.63;99098.94;5117148;28;20039;-74
2024/01/03 10:03:11;;;;;;;10.67;4.10;;;;;;;-11.78;55.44;99090.97;5135111;27;20316;-72
2024/01/03 10:05:37;;;;;;;8.50;4.50;;;;;;;-11.83;54.25;99083.41;5104383;27;20047;-70
2024/01/03 10:08:19;;;;;;;10.17;3.30;;;;;;;-11.67;54.24;99082.19;5103947;27;20196;-70
2024/01/03 10:10:45;;;;;;;8.63;3.77;;;;;;;-11.68;53.55;99083.03;5118415;27;20555;-67
2024/01/03 10:13:18;;;;;;;4.90;3.33;;;;;;;-11.49;53.20;99094.50;5133927;27;20299;-67
2024/01/03 10:15:45;;;;;;;7.67;3.70;;;;;;;-11.62;52.55;99098.22;5132162;27;20281;-68
2024/01/03 10:18:15;;;;;;;6.03;3.43;;;;;;;-11.44;53.07;99084.16;5131619;27;20295;-67
2024/01/03 10:20:40;;;;;;;4.00;2.85;;;;;;;-11.03;53.19;99084.78;5133690;27;20698;-68
2024/01/03 10:23:12;;;;;;;5.37;3.27;;;;;;;-10.06;52.98;99094.88;5100549;27;20377;-68
2024/01/03 10:25:38;;;;;;;5.13;2.60;;;;;;;-9.97;51.27;99099.72;5117167;27;20133;-69
2024/01/03 10:28:06;;;;;;;7.40;2.97;;;;;;;-10.11;50.42;99084.78;5136059;27;20272;-68
2024/01/03 10:30:32;;;;;;;5.13;2.83;;;;;;;-10.20;49.76;99091.91;5118718;27;20340;-68
2024/01/03 10:33:02;;;;;;;3.40;2.27;;;;;;;-10.19;49.93;99078.19;5134951;27;20628;-68
2024/01/03 10:35:33;;;;;;;4.78;2.75;;;;;;;-9.56;49.88;99086.50;5100902;27;20813;-68
2024/01/03 10:38:00;;;;;;;7.47;3.60;;;;;;;-9.29;48.62;99081.28;5101171;27;20035;-68
2024/01/03 10:40:32;;;;;;;6.90;3.07;;;;;;;-9.44;47.77;99080.94;5135140;27;20043;-68
2024/01/03 10:42:58;;;;;;;4.60;2.50;;;;;;;-9.58;47.06;99083.13;5135996;27;20295;-68
2024/01/03 10:45:24;;;;;;;5.40;2.60;;;;;;;-9.44;47.16;99081.78;5101167;27;20334;-68
2024/01/03 10:47:50;;;;;;;4.90;3.00;;;;;;;-9.33;46.75;99084.03;5117995;27;20360;-68
2024/01/03 10:50:16;;;;;;;4.53;3.20;;;;;;;-8.75;46.93;99078.59;5135902;27;20835;-68
2024/01/03 10:52:44;;;;;;;14.20;4.57;;;;;;;-8.15;46.23;99071.22;5118139;27;20412;-68
2024/01/03 10:55:27;;;;;;;15.93;5.63;;;;;;;-7.36;45.61;99074.94;5084636;27;20047;-68
2024/01/03 10:57:56;;;;;;;6.72;4.07;;;;;;;-6.69;43.89;99057.50;5135478;27;20051;-69
2024/01/03 11:00:47;;;;;;;6.67;3.60;;;;;;;-5.87;42.41;99065.81;5117686;27;20043;-69
2024/01/03 11:03:23;;;;;;;6.32;3.45;;;;;;;-4.43;40.79;99060.34;5100603;27;20039;-69
2024/01/03 11:05:58;;;;;;;4.87;3.20;;;;;;;-2.84;38.80;99057.50;5117816;27;20054;-69
2024/01/03 11:08:42;;;;;;;6.43;3.87;;;;;;;-1.60;36.54;99050.72;5134257;27;20043;-69
2024/01/03 11:11:10;;;;;;;5.57;3.37;;;;;;;-0.68;34.23;99046.31;5117810;27;20043;-70
2024/01/03 11:13:38;;;;;;;3.77;2.83;;;;;;;0.10;32.05;99050.47;5133628;27;20043;-69
2024/01/03 11:16:06;;;;;;;3.87;3.20;;;;;;;0.60;30.31;99058.16;5134245;27;20080;-70
2024/01/03 11:18:52;;;;;;;6.97;3.60;;;;;;;1.15;28.73;99053.16;5117330;27;20043;-68
2024/01/03 11:21:20;;;;;;;6.80;3.50;;;;;;;1.47;28.10;99061.25;5134692;27;20054;-68